sensor_id;sensor_type;location;lat;lon;timestamp;P1;durP1;ratioP1;P2;durP2;ratioP2
830;SDS011;397;50.564;7.272;2023-05-07T00:01:05;3.10;;;2.53;;
830;SDS011;397;50.564;7.272;2023-05-07T00:03:32;4.80;;;3.40;;
830;SDS011;397;50.564;7.272;2023-05-07T00:06:00;4.37;;;3.23;;
830;SDS011;397;50.564;7.272;2023-05-07T00:08:27;4.23;;;2.70;;
830;SDS011;397;50.564;7.272;2023-05-07T00:10:55;2.70;;;2.20;;
830;SDS011;397;50.564;7.272;2023-05-07T00:13:22;3.07;;;2.47;;
830;SDS011;397;50.564;7.272;2023-05-07T00:15:50;4.33;;;3.00;;
830;SDS011;397;50.564;7.272;2023-05-07T00:18:17;3.67;;;2.43;;
830;SDS011;397;50.564;7.272;2023-05-07T00:20:46;3.77;;;3.27;;
830;SDS011;397;50.564;7.272;2023-05-07T00:23:14;3.63;;;3.33;;
830;SDS011;397;50.564;7.272;2023-05-07T00:25:41;3.37;;;3.07;;
830;SDS011;397;50.564;7.272;2023-05-07T00:28:09;3.70;;;3.03;;
830;SDS011;397;50.564;7.272;2023-05-07T00:30:36;4.57;;;3.33;;
830;SDS011;397;50.564;7.272;2023-05-07T00:33:04;3.63;;;2.93;;
830;SDS011;397;50.564;7.272;2023-05-07T00:35:31;5.13;;;2.90;;
830;SDS011;397;50.564;7.272;2023-05-07T00:37:59;3.50;;;3.20;;
830;SDS011;397;50.564;7.272;2023-05-07T00:40:26;8.10;;;3.60;;
830;SDS011;397;50.564;7.272;2023-05-07T00:42:54;3.30;;;2.80;;
830;SDS011;397;50.564;7.272;2023-05-07T00:45:27;7.07;;;3.80;;
830;SDS011;397;50.564;7.272;2023-05-07T00:47:55;4.37;;;3.97;;
830;SDS011;397;50.564;7.272;2023-05-07T00:50:27;4.00;;;3.60;;
830;SDS011;397;50.564;7.272;2023-05-07T00:52:56;3.23;;;2.80;;
830;SDS011;397;50.564;7.272;2023-05-07T00:55:23;3.60;;;3.20;;
830;SDS011;397;50.564;7.272;2023-05-07T00:57:51;7.33;;;3.80;;
830;SDS011;397;50.564;7.272;2023-05-07T01:00:19;3.40;;;3.10;;
830;SDS011;397;50.564;7.272;2023-05-07T01:02:46;3.87;;;3.10;;
830;SDS011;397;50.564;7.272;2023-05-07T01:05:15;6.30;;;3.53;;
830;SDS011;397;50.564;7.272;2023-05-07T01:07:43;6.03;;;3.70;;
830;SDS011;397;50.564;7.272;2023-05-07T01:10:12;4.57;;;2.60;;
830;SDS011;397;50.564;7.272;2023-05-07T01:12:40;3.63;;;3.30;;
830;SDS011;397;50.564;7.272;2023-05-07T01:15:08;4.97;;;2.97;;
830;SDS011;397;50.564;7.272;2023-05-07T01:17:37;4.37;;;3.93;;
830;SDS011;397;50.564;7.272;2023-05-07T01:20:06;4.07;;;3.67;;
830;SDS011;397;50.564;7.272;2023-05-07T01:22:39;3.77;;;3.43;;
830;SDS011;397;50.564;7.272;2023-05-07T01:25:07;3.77;;;3.30;;
830;SDS011;397;50.564;7.272;2023-05-07T01:27:34;5.00;;;3.43;;
830;SDS011;397;50.564;7.272;2023-05-07T01:30:03;6.00;;;4.20;;
830;SDS011;397;50.564;7.272;2023-05-07T01:32:40;4.43;;;3.60;;
830;SDS011;397;50.564;7.272;2023-05-07T01:35:12;4.97;;;3.07;;
830;SDS011;397;50.564;7.272;2023-05-07T01:37:42;8.03;;;4.87;;
830;SDS011;397;50.564;7.272;2023-05-07T01:40:11;4.53;;;3.83;;
830;SDS011;397;50.564;7.272;2023-05-07T01:42:38;6.07;;;4.17;;
830;SDS011;397;50.564;7.272;2023-05-07T01:45:06;4.10;;;3.50;;
830;SDS011;397;50.564;7.272;2023-05-07T01:47:35;10.63;;;3.30;;
830;SDS011;397;50.564;7.272;2023-05-07T01:50:06;5.07;;;3.90;;
830;SDS011;397;50.564;7.272;2023-05-07T01:52:40;4.83;;;3.90;;
830;SDS011;397;50.564;7.272;2023-05-07T01:55:05;4.40;;;3.40;;
830;SDS011;397;50.564;7.272;2023-05-07T01:57:33;4.00;;;3.50;;
830;SDS011;397;50.564;7.272;2023-05-07T02:00:02;5.87;;;4.00;;
830;SDS011;397;50.564;7.272;2023-05-07T02:02:31;3.83;;;3.43;;
830;SDS011;397;50.564;7.272;2023-05-07T02:04:59;4.10;;;3.70;;
830;SDS011;397;50.564;7.272;2023-05-07T02:07:29;4.50;;;3.73;;
830;SDS011;397;50.564;7.272;2023-05-07T02:09:57;6.83;;;3.93;;
830;SDS011;397;50.564;7.272;2023-05-07T02:12:25;6.10;;;4.03;;
830;SDS011;397;50.564;7.272;2023-05-07T02:14:52;4.93;;;4.40;;
830;SDS011;397;50.564;7.272;2023-05-07T02:17:20;4.40;;;4.00;;
830;SDS011;397;50.564;7.272;2023-05-07T02:19:48;4.50;;;4.10;;
830;SDS011;397;50.564;7.272;2023-05-07T02:22:15;4.30;;;3.60;;
830;SDS011;397;50.564;7.272;2023-05-07T02:24:43;4.57;;;4.10;;
830;SDS011;397;50.564;7.272;2023-05-07T02:27:10;6.63;;;4.30;;
830;SDS011;397;50.564;7.272;2023-05-07T02:29:38;5.30;;;4.80;;
830;SDS011;397;50.564;7.272;2023-05-07T02:32:05;3.90;;;3.50;;
830;SDS011;397;50.564;7.272;2023-05-07T02:34:33;4.17;;;3.77;;
830;SDS011;397;50.564;7.272;2023-05-07T02:37:00;4.13;;;3.37;;
830;SDS011;397;50.564;7.272;2023-05-07T02:39:28;4.70;;;3.70;;
830;SDS011;397;50.564;7.272;2023-05-07T02:41:55;4.17;;;3.77;;
830;SDS011;397;50.564;7.272;2023-05-07T02:44:23;4.30;;;3.73;;
830;SDS011;397;50.564;7.272;2023-05-07T02:46:50;5.30;;;4.80;;
830;SDS011;397;50.564;7.272;2023-05-07T02:49:18;4.50;;;4.10;;
830;SDS011;397;50.564;7.272;2023-05-07T02:51:46;4.47;;;4.00;;
830;SDS011;397;50.564;7.272;2023-05-07T02:54:14;4.63;;;4.20;;
830;SDS011;397;50.564;7.272;2023-05-07T02:56:41;13.20;;;4.87;;
830;SDS011;397;50.564;7.272;2023-05-07T02:59:09;4.87;;;4.47;;
830;SDS011;397;50.564;7.272;2023-05-07T03:01:36;5.77;;;4.63;;
830;SDS011;397;50.564;7.272;2023-05-07T03:04:04;6.70;;;5.33;;
830;SDS011;397;50.564;7.272;2023-05-07T03:06:31;4.50;;;4.07;;
830;SDS011;397;50.564;7.272;2023-05-07T03:08:59;5.10;;;4.53;;
830;SDS011;397;50.564;7.272;2023-05-07T03:11:26;5.43;;;3.70;;
830;SDS011;397;50.564;7.272;2023-05-07T03:13:54;6.30;;;4.47;;
830;SDS011;397;50.564;7.272;2023-05-07T03:16:21;8.77;;;5.60;;
830;SDS011;397;50.564;7.272;2023-05-07T03:18:49;6.07;;;5.47;;
830;SDS011;397;50.564;7.272;2023-05-07T03:21:16;7.47;;;4.60;;
830;SDS011;397;50.564;7.272;2023-05-07T03:23:44;6.47;;;5.10;;
830;SDS011;397;50.564;7.272;2023-05-07T03:26:11;6.63;;;4.80;;
830;SDS011;397;50.564;7.272;2023-05-07T03:28:39;5.60;;;4.73;;
830;SDS011;397;50.564;7.272;2023-05-07T03:31:06;6.00;;;4.13;;
830;SDS011;397;50.564;7.272;2023-05-07T03:33:34;6.00;;;5.50;;
830;SDS011;397;50.564;7.272;2023-05-07T03:36:01;5.63;;;4.27;;
830;SDS011;397;50.564;7.272;2023-05-07T03:38:30;5.30;;;4.80;;
830;SDS011;397;50.564;7.272;2023-05-07T03:40:57;6.00;;;4.23;;
830;SDS011;397;50.564;7.272;2023-05-07T03:43:25;7.63;;;5.40;;
830;SDS011;397;50.564;7.272;2023-05-07T03:45:52;6.13;;;4.63;;
830;SDS011;397;50.564;7.272;2023-05-07T03:48:20;7.13;;;5.30;;
830;SDS011;397;50.564;7.272;2023-05-07T03:50:48;5.90;;;4.80;;
830;SDS011;397;50.564;7.272;2023-05-07T03:53:15;6.83;;;5.90;;
830;SDS011;397;50.564;7.272;2023-05-07T03:55:43;5.25;;;4.45;;
830;SDS011;397;50.564;7.272;2023-05-07T03:58:10;6.40;;;4.87;;
830;SDS011;397;50.564;7.272;2023-05-07T04:00:38;12.10;;;5.27;;
830;SDS011;397;50.564;7.272;2023-05-07T04:03:06;5.97;;;5.47;;
830;SDS011;397;50.564;7.272;2023-05-07T04:05:33;7.43;;;5.10;;
830;SDS011;397;50.564;7.272;2023-05-07T04:08:01;4.50;;;4.10;;
830;SDS011;397;50.564;7.272;2023-05-07T04:10:29;5.73;;;5.10;;
830;SDS011;397;50.564;7.272;2023-05-07T04:12:56;5.20;;;4.80;;
830;SDS011;397;50.564;7.272;2023-05-07T04:15:24;5.43;;;4.80;;
830;SDS011;397;50.564;7.272;2023-05-07T04:17:51;5.97;;;5.20;;
830;SDS011;397;50.564;7.272;2023-05-07T04:20:19;5.53;;;5.03;;
830;SDS011;397;50.564;7.272;2023-05-07T04:22:46;5.73;;;5.10;;
830;SDS011;397;50.564;7.272;2023-05-07T04:25:15;6.43;;;5.80;;
830;SDS011;397;50.564;7.272;2023-05-07T04:27:43;4.97;;;4.47;;
830;SDS011;397;50.564;7.272;2023-05-07T04:30:10;6.23;;;5.63;;
830;SDS011;397;50.564;7.272;2023-05-07T04:32:39;5.40;;;4.90;;
830;SDS011;397;50.564;7.272;2023-05-07T04:35:07;8.70;;;5.30;;
830;SDS011;397;50.564;7.272;2023-05-07T04:37:34;5.27;;;4.80;;
830;SDS011;397;50.564;7.272;2023-05-07T04:40:02;6.30;;;4.93;;
830;SDS011;397;50.564;7.272;2023-05-07T04:42:30;5.47;;;4.93;;
830;SDS011;397;50.564;7.272;2023-05-07T04:44:57;6.03;;;5.30;;
830;SDS011;397;50.564;7.272;2023-05-07T04:47:25;6.07;;;5.30;;
830;SDS011;397;50.564;7.272;2023-05-07T04:49:53;6.73;;;5.50;;
830;SDS011;397;50.564;7.272;2023-05-07T04:52:20;7.50;;;5.27;;
830;SDS011;397;50.564;7.272;2023-05-07T04:54:48;6.00;;;5.23;;
830;SDS011;397;50.564;7.272;2023-05-07T04:57:15;5.60;;;5.00;;
830;SDS011;397;50.564;7.272;2023-05-07T04:59:43;6.47;;;5.83;;
830;SDS011;397;50.564;7.272;2023-05-07T05:02:11;5.97;;;5.37;;
830;SDS011;397;50.564;7.272;2023-05-07T05:04:38;5.43;;;4.90;;
830;SDS011;397;50.564;7.272;2023-05-07T05:07:06;6.67;;;5.03;;
830;SDS011;397;50.564;7.272;2023-05-07T05:09:33;4.50;;;4.10;;
830;SDS011;397;50.564;7.272;2023-05-07T05:12:01;5.33;;;4.83;;
830;SDS011;397;50.564;7.272;2023-05-07T05:14:29;7.23;;;4.93;;
830;SDS011;397;50.564;7.272;2023-05-07T05:16:56;4.70;;;4.27;;
830;SDS011;397;50.564;7.272;2023-05-07T05:19:24;6.83;;;4.87;;
830;SDS011;397;50.564;7.272;2023-05-07T05:21:51;9.00;;;4.57;;
830;SDS011;397;50.564;7.272;2023-05-07T05:24:19;7.73;;;4.47;;
830;SDS011;397;50.564;7.272;2023-05-07T05:26:46;4.43;;;4.03;;
830;SDS011;397;50.564;7.272;2023-05-07T05:29:14;6.30;;;4.90;;
830;SDS011;397;50.564;7.272;2023-05-07T05:31:41;5.50;;;5.00;;
830;SDS011;397;50.564;7.272;2023-05-07T05:34:09;5.73;;;4.80;;
830;SDS011;397;50.564;7.272;2023-05-07T05:36:36;6.40;;;4.80;;
830;SDS011;397;50.564;7.272;2023-05-07T05:39:04;6.53;;;4.40;;
830;SDS011;397;50.564;7.272;2023-05-07T05:41:31;5.70;;;4.60;;
830;SDS011;397;50.564;7.272;2023-05-07T05:43:59;4.30;;;3.90;;
830;SDS011;397;50.564;7.272;2023-05-07T05:46:26;4.40;;;3.80;;
830;SDS011;397;50.564;7.272;2023-05-07T05:48:54;5.10;;;4.07;;
830;SDS011;397;50.564;7.272;2023-05-07T05:51:21;4.93;;;4.43;;
830;SDS011;397;50.564;7.272;2023-05-07T05:53:49;4.87;;;3.90;;
830;SDS011;397;50.564;7.272;2023-05-07T05:56:16;4.90;;;3.90;;
830;SDS011;397;50.564;7.272;2023-05-07T05:58:44;4.93;;;4.40;;
830;SDS011;397;50.564;7.272;2023-05-07T06:03:59;5.30;;;3.87;;
830;SDS011;397;50.564;7.272;2023-05-07T06:06:27;6.23;;;4.40;;
830;SDS011;397;50.564;7.272;2023-05-07T06:08:54;4.27;;;3.87;;
830;SDS011;397;50.564;7.272;2023-05-07T06:11:22;5.23;;;4.40;;
830;SDS011;397;50.564;7.272;2023-05-07T06:13:49;6.47;;;4.00;;
830;SDS011;397;50.564;7.272;2023-05-07T06:16:17;4.30;;;3.90;;
830;SDS011;397;50.564;7.272;2023-05-07T06:18:44;4.70;;;4.20;;
830;SDS011;397;50.564;7.272;2023-05-07T06:21:13;5.93;;;4.17;;
830;SDS011;397;50.564;7.272;2023-05-07T06:23:41;6.50;;;4.43;;
830;SDS011;397;50.564;7.272;2023-05-07T06:26:08;6.40;;;4.40;;
830;SDS011;397;50.564;7.272;2023-05-07T06:28:36;4.27;;;3.70;;
830;SDS011;397;50.564;7.272;2023-05-07T06:31:16;4.40;;;4.00;;
830;SDS011;397;50.564;7.272;2023-05-07T06:33:46;5.20;;;4.70;;
830;SDS011;397;50.564;7.272;2023-05-07T06:36:14;7.03;;;5.10;;
830;SDS011;397;50.564;7.272;2023-05-07T06:38:42;6.90;;;6.30;;
830;SDS011;397;50.564;7.272;2023-05-07T06:41:09;7.87;;;7.10;;
830;SDS011;397;50.564;7.272;2023-05-07T06:43:37;7.47;;;6.30;;
830;SDS011;397;50.564;7.272;2023-05-07T06:46:04;7.60;;;6.90;;
830;SDS011;397;50.564;7.272;2023-05-07T06:48:32;7.90;;;7.20;;
830;SDS011;397;50.564;7.272;2023-05-07T06:50:59;9.10;;;8.27;;
830;SDS011;397;50.564;7.272;2023-05-07T06:53:27;8.93;;;7.00;;
830;SDS011;397;50.564;7.272;2023-05-07T06:55:56;7.77;;;6.87;;
830;SDS011;397;50.564;7.272;2023-05-07T06:58:23;7.17;;;6.40;;
830;SDS011;397;50.564;7.272;2023-05-07T07:00:51;9.20;;;6.73;;
830;SDS011;397;50.564;7.272;2023-05-07T07:03:18;7.90;;;7.10;;
830;SDS011;397;50.564;7.272;2023-05-07T07:05:46;8.03;;;7.10;;
830;SDS011;397;50.564;7.272;2023-05-07T07:08:14;8.93;;;8.10;;
830;SDS011;397;50.564;7.272;2023-05-07T07:10:43;8.80;;;7.87;;
830;SDS011;397;50.564;7.272;2023-05-07T07:13:10;7.93;;;7.13;;
830;SDS011;397;50.564;7.272;2023-05-07T07:15:38;8.13;;;7.33;;
830;SDS011;397;50.564;7.272;2023-05-07T07:18:06;7.63;;;6.63;;
830;SDS011;397;50.564;7.272;2023-05-07T07:20:33;9.40;;;6.97;;
830;SDS011;397;50.564;7.272;2023-05-07T07:23:01;7.07;;;6.33;;
830;SDS011;397;50.564;7.272;2023-05-07T07:25:28;8.67;;;7.00;;
830;SDS011;397;50.564;7.272;2023-05-07T07:27:56;7.47;;;6.50;;
830;SDS011;397;50.564;7.272;2023-05-07T07:30:23;7.80;;;7.10;;
830;SDS011;397;50.564;7.272;2023-05-07T07:32:51;6.50;;;5.90;;
830;SDS011;397;50.564;7.272;2023-05-07T07:35:19;7.47;;;5.97;;
830;SDS011;397;50.564;7.272;2023-05-07T07:37:48;9.23;;;5.17;;
830;SDS011;397;50.564;7.272;2023-05-07T07:40:16;6.70;;;5.50;;
830;SDS011;397;50.564;7.272;2023-05-07T07:42:43;8.70;;;5.20;;
830;SDS011;397;50.564;7.272;2023-05-07T07:45:11;6.63;;;4.40;;
830;SDS011;397;50.564;7.272;2023-05-07T07:47:41;7.10;;;5.20;;
830;SDS011;397;50.564;7.272;2023-05-07T07:50:09;5.00;;;4.50;;
830;SDS011;397;50.564;7.272;2023-05-07T07:52:36;5.80;;;3.63;;
830;SDS011;397;50.564;7.272;2023-05-07T07:55:06;5.47;;;4.30;;
830;SDS011;397;50.564;7.272;2023-05-07T07:57:36;6.40;;;4.20;;
830;SDS011;397;50.564;7.272;2023-05-07T08:00:04;4.43;;;3.30;;
830;SDS011;397;50.564;7.272;2023-05-07T08:02:33;7.53;;;3.80;;
830;SDS011;397;50.564;7.272;2023-05-07T08:05:00;5.10;;;3.50;;
830;SDS011;397;50.564;7.272;2023-05-07T08:07:28;4.60;;;3.63;;
830;SDS011;397;50.564;7.272;2023-05-07T08:09:56;4.30;;;3.63;;
830;SDS011;397;50.564;7.272;2023-05-07T08:12:23;5.57;;;3.70;;
830;SDS011;397;50.564;7.272;2023-05-07T08:14:51;4.73;;;3.43;;
830;SDS011;397;50.564;7.272;2023-05-07T08:17:18;4.40;;;3.57;;
830;SDS011;397;50.564;7.272;2023-05-07T08:19:48;4.73;;;3.80;;
830;SDS011;397;50.564;7.272;2023-05-07T08:22:15;4.40;;;4.00;;
830;SDS011;397;50.564;7.272;2023-05-07T08:24:44;5.13;;;3.90;;
830;SDS011;397;50.564;7.272;2023-05-07T08:27:11;8.90;;;4.67;;
830;SDS011;397;50.564;7.272;2023-05-07T08:29:39;8.50;;;4.53;;
830;SDS011;397;50.564;7.272;2023-05-07T08:32:06;4.00;;;3.50;;
830;SDS011;397;50.564;7.272;2023-05-07T08:34:34;4.60;;;3.90;;
830;SDS011;397;50.564;7.272;2023-05-07T08:37:01;5.70;;;3.83;;
830;SDS011;397;50.564;7.272;2023-05-07T08:39:29;3.60;;;3.30;;
830;SDS011;397;50.564;7.272;2023-05-07T08:41:56;6.00;;;3.60;;
830;SDS011;397;50.564;7.272;2023-05-07T08:44:28;4.30;;;3.77;;
830;SDS011;397;50.564;7.272;2023-05-07T08:47:01;5.50;;;4.30;;
830;SDS011;397;50.564;7.272;2023-05-07T08:49:29;4.73;;;3.33;;
830;SDS011;397;50.564;7.272;2023-05-07T08:51:56;5.57;;;3.47;;
830;SDS011;397;50.564;7.272;2023-05-07T08:54:24;4.43;;;2.93;;
830;SDS011;397;50.564;7.272;2023-05-07T08:56:52;8.00;;;3.37;;
830;SDS011;397;50.564;7.272;2023-05-07T08:59:20;4.60;;;3.10;;
830;SDS011;397;50.564;7.272;2023-05-07T09:01:47;4.33;;;3.20;;
830;SDS011;397;50.564;7.272;2023-05-07T09:04:15;4.77;;;4.10;;
830;SDS011;397;50.564;7.272;2023-05-07T09:06:43;4.67;;;3.63;;
830;SDS011;397;50.564;7.272;2023-05-07T09:09:10;5.43;;;3.20;;
830;SDS011;397;50.564;7.272;2023-05-07T09:11:41;4.63;;;3.77;;
830;SDS011;397;50.564;7.272;2023-05-07T09:14:08;4.57;;;3.70;;
830;SDS011;397;50.564;7.272;2023-05-07T09:16:36;3.97;;;3.57;;
830;SDS011;397;50.564;7.272;2023-05-07T09:19:04;4.27;;;3.63;;
830;SDS011;397;50.564;7.272;2023-05-07T09:21:32;5.00;;;3.77;;
830;SDS011;397;50.564;7.272;2023-05-07T09:23:59;6.50;;;3.90;;
830;SDS011;397;50.564;7.272;2023-05-07T09:26:27;6.03;;;3.47;;
830;SDS011;397;50.564;7.272;2023-05-07T09:28:54;6.30;;;3.23;;
830;SDS011;397;50.564;7.272;2023-05-07T09:31:22;6.40;;;4.53;;
830;SDS011;397;50.564;7.272;2023-05-07T09:33:50;5.83;;;4.07;;
830;SDS011;397;50.564;7.272;2023-05-07T09:36:21;5.00;;;3.73;;
830;SDS011;397;50.564;7.272;2023-05-07T09:38:49;4.87;;;3.63;;
830;SDS011;397;50.564;7.272;2023-05-07T09:41:17;6.90;;;3.63;;
830;SDS011;397;50.564;7.272;2023-05-07T09:43:45;4.47;;;3.67;;
830;SDS011;397;50.564;7.272;2023-05-07T09:46:13;5.03;;;4.20;;
830;SDS011;397;50.564;7.272;2023-05-07T09:48:43;4.20;;;3.80;;
830;SDS011;397;50.564;7.272;2023-05-07T09:53:57;4.63;;;3.50;;
830;SDS011;397;50.564;7.272;2023-05-07T09:56:22;7.13;;;4.80;;
830;SDS011;397;50.564;7.272;2023-05-07T09:58:51;5.13;;;3.70;;
830;SDS011;397;50.564;7.272;2023-05-07T10:01:21;4.00;;;3.60;;
830;SDS011;397;50.564;7.272;2023-05-07T10:03:50;3.97;;;3.57;;
830;SDS011;397;50.564;7.272;2023-05-07T10:06:21;4.47;;;3.30;;
830;SDS011;397;50.564;7.272;2023-05-07T10:08:51;4.93;;;3.53;;
830;SDS011;397;50.564;7.272;2023-05-07T10:11:19;5.57;;;3.40;;
830;SDS011;397;50.564;7.272;2023-05-07T10:13:48;4.03;;;3.10;;
830;SDS011;397;50.564;7.272;2023-05-07T10:16:16;3.80;;;3.13;;
830;SDS011;397;50.564;7.272;2023-05-07T10:18:45;5.43;;;4.73;;
830;SDS011;397;50.564;7.272;2023-05-07T10:21:18;4.20;;;3.47;;
830;SDS011;397;50.564;7.272;2023-05-07T10:23:51;4.77;;;3.00;;
830;SDS011;397;50.564;7.272;2023-05-07T10:26:24;4.93;;;3.13;;
830;SDS011;397;50.564;7.272;2023-05-07T10:28:55;4.90;;;3.40;;
830;SDS011;397;50.564;7.272;2023-05-07T10:31:39;3.50;;;2.53;;
830;SDS011;397;50.564;7.272;2023-05-07T10:34:13;3.63;;;2.57;;
830;SDS011;397;50.564;7.272;2023-05-07T10:36:43;6.70;;;3.30;;
830;SDS011;397;50.564;7.272;2023-05-07T10:39:11;3.73;;;2.30;;
830;SDS011;397;50.564;7.272;2023-05-07T10:41:39;4.90;;;2.70;;
830;SDS011;397;50.564;7.272;2023-05-07T10:44:06;4.30;;;2.80;;
830;SDS011;397;50.564;7.272;2023-05-07T10:46:34;2.93;;;2.03;;
830;SDS011;397;50.564;7.272;2023-05-07T10:51:32;5.73;;;2.37;;
830;SDS011;397;50.564;7.272;2023-05-07T10:56:41;3.27;;;2.23;;
830;SDS011;397;50.564;7.272;2023-05-07T11:02:03;4.80;;;1.90;;
830;SDS011;397;50.564;7.272;2023-05-07T11:04:32;3.20;;;2.23;;
830;SDS011;397;50.564;7.272;2023-05-07T11:10:02;8.30;;;2.20;;
830;SDS011;397;50.564;7.272;2023-05-07T11:15:12;3.33;;;2.10;;
830;SDS011;397;50.564;7.272;2023-05-07T11:17:52;2.67;;;1.57;;
830;SDS011;397;50.564;7.272;2023-05-07T11:20:56;3.20;;;2.00;;
830;SDS011;397;50.564;7.272;2023-05-07T11:26:09;2.83;;;2.00;;
830;SDS011;397;50.564;7.272;2023-05-07T11:28:40;4.10;;;2.10;;
830;SDS011;397;50.564;7.272;2023-05-07T11:31:09;3.10;;;1.63;;
830;SDS011;397;50.564;7.272;2023-05-07T11:33:37;3.07;;;2.10;;
830;SDS011;397;50.564;7.272;2023-05-07T11:36:05;3.50;;;2.07;;
830;SDS011;397;50.564;7.272;2023-05-07T11:38:35;4.70;;;2.20;;
830;SDS011;397;50.564;7.272;2023-05-07T11:41:04;5.83;;;2.23;;
830;SDS011;397;50.564;7.272;2023-05-07T11:43:32;3.43;;;2.03;;
830;SDS011;397;50.564;7.272;2023-05-07T11:46:09;3.33;;;2.20;;
830;SDS011;397;50.564;7.272;2023-05-07T11:48:35;4.53;;;2.30;;
830;SDS011;397;50.564;7.272;2023-05-07T11:51:04;3.60;;;2.37;;
830;SDS011;397;50.564;7.272;2023-05-07T11:53:41;3.70;;;2.33;;
830;SDS011;397;50.564;7.272;2023-05-07T11:58:57;3.20;;;2.00;;
830;SDS011;397;50.564;7.272;2023-05-07T12:01:25;3.27;;;2.00;;
830;SDS011;397;50.564;7.272;2023-05-07T12:03:52;3.00;;;1.93;;
830;SDS011;397;50.564;7.272;2023-05-07T12:09:07;3.30;;;2.07;;
830;SDS011;397;50.564;7.272;2023-05-07T12:11:36;4.50;;;1.77;;
830;SDS011;397;50.564;7.272;2023-05-07T12:14:05;3.37;;;1.30;;
830;SDS011;397;50.564;7.272;2023-05-07T12:16:33;2.83;;;1.60;;
830;SDS011;397;50.564;7.272;2023-05-07T12:19:00;3.10;;;1.63;;
830;SDS011;397;50.564;7.272;2023-05-07T12:21:28;3.33;;;1.90;;
830;SDS011;397;50.564;7.272;2023-05-07T12:23:56;3.80;;;1.77;;
830;SDS011;397;50.564;7.272;2023-05-07T12:26:24;2.80;;;1.60;;
830;SDS011;397;50.564;7.272;2023-05-07T12:28:51;5.63;;;1.57;;
830;SDS011;397;50.564;7.272;2023-05-07T12:31:19;2.77;;;1.80;;
830;SDS011;397;50.564;7.272;2023-05-07T12:33:46;4.27;;;2.33;;
830;SDS011;397;50.564;7.272;2023-05-07T12:36:14;8.40;;;2.07;;
830;SDS011;397;50.564;7.272;2023-05-07T12:38:42;3.23;;;1.77;;
830;SDS011;397;50.564;7.272;2023-05-07T12:41:10;3.20;;;2.10;;
830;SDS011;397;50.564;7.272;2023-05-07T12:43:42;3.83;;;2.00;;
830;SDS011;397;50.564;7.272;2023-05-07T12:46:12;3.30;;;2.20;;
830;SDS011;397;50.564;7.272;2023-05-07T12:48:44;3.37;;;1.67;;
830;SDS011;397;50.564;7.272;2023-05-07T12:51:12;2.93;;;1.80;;
830;SDS011;397;50.564;7.272;2023-05-07T12:53:41;3.30;;;2.00;;
830;SDS011;397;50.564;7.272;2023-05-07T12:56:09;3.23;;;1.90;;
830;SDS011;397;50.564;7.272;2023-05-07T12:58:37;5.17;;;2.67;;
830;SDS011;397;50.564;7.272;2023-05-07T13:01:05;3.00;;;2.00;;
830;SDS011;397;50.564;7.272;2023-05-07T13:03:35;2.93;;;2.00;;
830;SDS011;397;50.564;7.272;2023-05-07T13:06:06;7.60;;;2.70;;
830;SDS011;397;50.564;7.272;2023-05-07T13:08:38;3.97;;;2.80;;
830;SDS011;397;50.564;7.272;2023-05-07T13:11:09;6.07;;;3.00;;
830;SDS011;397;50.564;7.272;2023-05-07T13:13:38;4.07;;;2.80;;
830;SDS011;397;50.564;7.272;2023-05-07T13:16:08;3.07;;;2.13;;
830;SDS011;397;50.564;7.272;2023-05-07T13:18:37;3.87;;;2.87;;
830;SDS011;397;50.564;7.272;2023-05-07T13:21:05;4.30;;;2.87;;
830;SDS011;397;50.564;7.272;2023-05-07T13:23:33;5.10;;;3.20;;
830;SDS011;397;50.564;7.272;2023-05-07T13:26:01;3.17;;;2.57;;
830;SDS011;397;50.564;7.272;2023-05-07T13:28:28;3.55;;;2.85;;
830;SDS011;397;50.564;7.272;2023-05-07T13:30:56;3.70;;;3.00;;
830;SDS011;397;50.564;7.272;2023-05-07T13:33:23;5.30;;;3.73;;
830;SDS011;397;50.564;7.272;2023-05-07T13:35:51;3.70;;;3.07;;
830;SDS011;397;50.564;7.272;2023-05-07T13:38:18;4.43;;;3.50;;
830;SDS011;397;50.564;7.272;2023-05-07T13:40:46;3.90;;;3.07;;
830;SDS011;397;50.564;7.272;2023-05-07T13:43:13;4.20;;;3.33;;
830;SDS011;397;50.564;7.272;2023-05-07T13:45:43;5.53;;;2.90;;
830;SDS011;397;50.564;7.272;2023-05-07T13:48:11;3.67;;;2.83;;
830;SDS011;397;50.564;7.272;2023-05-07T13:50:38;4.20;;;2.90;;
830;SDS011;397;50.564;7.272;2023-05-07T13:53:07;3.50;;;3.00;;
830;SDS011;397;50.564;7.272;2023-05-07T13:55:34;4.00;;;3.60;;
830;SDS011;397;50.564;7.272;2023-05-07T13:58:02;4.93;;;2.90;;
830;SDS011;397;50.564;7.272;2023-05-07T14:00:31;4.83;;;3.87;;
830;SDS011;397;50.564;7.272;2023-05-07T14:02:58;4.60;;;3.50;;
830;SDS011;397;50.564;7.272;2023-05-07T14:05:26;6.40;;;3.30;;
830;SDS011;397;50.564;7.272;2023-05-07T14:07:59;6.93;;;3.17;;
830;SDS011;397;50.564;7.272;2023-05-07T14:10:27;4.60;;;3.10;;
830;SDS011;397;50.564;7.272;2023-05-07T14:12:54;3.50;;;2.80;;
830;SDS011;397;50.564;7.272;2023-05-07T14:15:22;8.97;;;3.80;;
830;SDS011;397;50.564;7.272;2023-05-07T14:17:49;3.83;;;3.43;;
830;SDS011;397;50.564;7.272;2023-05-07T14:20:17;3.90;;;3.37;;
830;SDS011;397;50.564;7.272;2023-05-07T14:25:32;4.97;;;3.80;;
830;SDS011;397;50.564;7.272;2023-05-07T14:27:59;4.47;;;3.40;;
830;SDS011;397;50.564;7.272;2023-05-07T14:30:27;4.00;;;3.60;;
830;SDS011;397;50.564;7.272;2023-05-07T14:32:54;3.70;;;3.17;;
830;SDS011;397;50.564;7.272;2023-05-07T14:35:22;4.63;;;3.70;;
830;SDS011;397;50.564;7.272;2023-05-07T14:37:49;3.73;;;2.97;;
830;SDS011;397;50.564;7.272;2023-05-07T14:40:17;4.57;;;3.10;;
830;SDS011;397;50.564;7.272;2023-05-07T14:42:45;5.03;;;3.40;;
830;SDS011;397;50.564;7.272;2023-05-07T14:45:12;4.87;;;3.20;;
830;SDS011;397;50.564;7.272;2023-05-07T14:47:40;4.63;;;2.30;;
830;SDS011;397;50.564;7.272;2023-05-07T14:50:07;6.60;;;3.10;;
830;SDS011;397;50.564;7.272;2023-05-07T14:52:35;3.10;;;2.37;;
830;SDS011;397;50.564;7.272;2023-05-07T14:55:03;4.30;;;3.00;;
830;SDS011;397;50.564;7.272;2023-05-07T14:57:30;7.00;;;3.30;;
830;SDS011;397;50.564;7.272;2023-05-07T15:00:00;3.53;;;2.63;;
830;SDS011;397;50.564;7.272;2023-05-07T15:02:30;5.23;;;2.83;;
830;SDS011;397;50.564;7.272;2023-05-07T15:04:58;4.73;;;3.33;;
830;SDS011;397;50.564;7.272;2023-05-07T15:07:26;4.30;;;2.73;;
830;SDS011;397;50.564;7.272;2023-05-07T15:09:54;4.60;;;3.67;;
830;SDS011;397;50.564;7.272;2023-05-07T15:12:22;4.73;;;3.40;;
830;SDS011;397;50.564;7.272;2023-05-07T15:14:49;6.40;;;3.60;;
830;SDS011;397;50.564;7.272;2023-05-07T15:17:17;6.20;;;3.87;;
830;SDS011;397;50.564;7.272;2023-05-07T15:19:44;5.50;;;3.10;;
830;SDS011;397;50.564;7.272;2023-05-07T15:22:12;8.13;;;4.37;;
830;SDS011;397;50.564;7.272;2023-05-07T15:24:39;7.20;;;3.57;;
830;SDS011;397;50.564;7.272;2023-05-07T15:27:07;5.90;;;3.47;;
830;SDS011;397;50.564;7.272;2023-05-07T15:29:34;5.97;;;3.80;;
830;SDS011;397;50.564;7.272;2023-05-07T15:32:02;8.20;;;3.37;;
830;SDS011;397;50.564;7.272;2023-05-07T15:34:30;7.23;;;3.10;;
830;SDS011;397;50.564;7.272;2023-05-07T15:36:57;5.33;;;3.50;;
830;SDS011;397;50.564;7.272;2023-05-07T15:39:25;6.03;;;3.07;;
830;SDS011;397;50.564;7.272;2023-05-07T15:41:52;4.63;;;2.80;;
830;SDS011;397;50.564;7.272;2023-05-07T15:44:20;6.80;;;2.73;;
830;SDS011;397;50.564;7.272;2023-05-07T15:46:47;3.13;;;2.30;;
830;SDS011;397;50.564;7.272;2023-05-07T15:49:15;7.60;;;2.23;;
830;SDS011;397;50.564;7.272;2023-05-07T15:51:43;3.50;;;2.37;;
830;SDS011;397;50.564;7.272;2023-05-07T15:54:10;5.90;;;2.20;;
830;SDS011;397;50.564;7.272;2023-05-07T15:56:38;3.50;;;2.37;;
830;SDS011;397;50.564;7.272;2023-05-07T15:59:05;4.23;;;2.77;;
830;SDS011;397;50.564;7.272;2023-05-07T16:01:34;3.23;;;2.50;;
830;SDS011;397;50.564;7.272;2023-05-07T16:04:02;6.47;;;2.37;;
830;SDS011;397;50.564;7.272;2023-05-07T16:06:30;5.97;;;3.37;;
830;SDS011;397;50.564;7.272;2023-05-07T16:08:57;6.47;;;2.87;;
830;SDS011;397;50.564;7.272;2023-05-07T16:11:25;4.53;;;3.23;;
830;SDS011;397;50.564;7.272;2023-05-07T16:13:55;4.60;;;3.13;;
830;SDS011;397;50.564;7.272;2023-05-07T16:16:24;6.10;;;3.40;;
830;SDS011;397;50.564;7.272;2023-05-07T16:18:53;5.87;;;3.80;;
830;SDS011;397;50.564;7.272;2023-05-07T16:21:21;4.80;;;3.67;;